Terminal Aerodrome Forecast
Issued by NWS Wilmington, NC

Home | Current Version | Previous Version | Text Only | Print | Product List | Glossary On
Versions: 1 2 3 4 5 6 7 8 9 10 11 12 13 14
000
FTUS42 KILM 232300
TAFLBT
TAF
KLBT 232326Z 2400/2424 13011G20KT 6SM -RA BR BKN009 OVC012
      TEMPO 2402/2406 20015G25KT 2SM +SHRA BKN012
     FM240600 21012KT 4SM BR VCSH BKN006
     FM241100 22011KT 3SM BR BKN006
     FM241700 22012G19KT P6SM BKN025 OVC050=

USA.gov is the U.S. government's official web portal to all federal, state and local government web resources and services.